createdAt,value
2018-12-20T00:00:53.244Z,100191.56
2018-12-20T00:03:35.123Z,100187.14
2018-12-20T00:06:17.432Z,100189.54
2018-12-20T00:08:59.369Z,100185.70
2018-12-20T00:11:41.743Z,100182.42
2018-12-20T00:14:29.726Z,100190.94
2018-12-20T00:17:12.481Z,100189.23
2018-12-20T00:19:54.957Z,100186.01
2018-12-20T00:22:37.026Z,100182.77
2018-12-20T00:25:19.958Z,100189.25
2018-12-20T00:28:01.788Z,100190.89
2018-12-20T00:30:43.308Z,100186.09
2018-12-20T00:33:24.735Z,100182.18
2018-12-20T00:36:06.764Z,100185.48
2018-12-20T00:38:48.412Z,100188.95
2018-12-20T00:41:30.394Z,100184.27
2018-12-20T00:44:13.050Z,100183.78
2018-12-20T00:46:55.468Z,100187.40
2018-12-20T00:49:37.952Z,100188.36
2018-12-20T00:52:19.272Z,100188.61
2018-12-20T00:55:00.847Z,100184.70
2018-12-20T00:57:42.468Z,100188.16
2018-12-20T01:00:24.077Z,100188.14
2018-12-20T01:03:06.391Z,100186.08
2018-12-20T01:05:48.137Z,100188.63
2018-12-20T01:08:29.900Z,100190.14
2018-12-20T01:11:11.414Z,100194.35
2018-12-20T01:13:53.007Z,100190.85
2018-12-20T01:16:34.543Z,100192.27
2018-12-20T01:19:16.427Z,100190.20
2018-12-20T01:21:58.421Z,100184.48
2018-12-20T01:24:40.684Z,100187.60
2018-12-20T01:27:22.444Z,100203.26
2018-12-20T01:30:05.510Z,100198.10
2018-12-20T01:32:47.615Z,100197.15
2018-12-20T01:35:29.587Z,100197.11
2018-12-20T01:38:10.976Z,100204.38
2018-12-20T01:40:53.575Z,100208.33
2018-12-20T01:43:35.178Z,100198.64
2018-12-20T01:46:16.591Z,100202.83
2018-12-20T01:48:57.738Z,100199.28
2018-12-20T01:51:40.515Z,100200.05
2018-12-20T01:54:22.494Z,100201.47
2018-12-20T01:57:04.218Z,100202.02
2018-12-20T01:59:47.445Z,100198.97
2018-12-20T02:02:29.494Z,100205.89
2018-12-20T02:05:12.064Z,100195.88
2018-12-20T02:07:53.698Z,100204.02
2018-12-20T02:10:35.643Z,100200.63
2018-12-20T02:13:17.394Z,100193.94
2018-12-20T02:15:59.268Z,100192.16
2018-12-20T02:18:41.165Z,100191.58
2018-12-20T02:21:23.569Z,100190.54
2018-12-20T02:24:05.510Z,100200.85
2018-12-20T02:26:47.034Z,100194.86
2018-12-20T02:29:29.295Z,100194.83
2018-12-20T02:32:12.533Z,100193.98
2018-12-20T02:34:54.317Z,100194.55
2018-12-20T02:37:37.091Z,100194.23
2018-12-20T02:40:19.507Z,100197.84
2018-12-20T02:43:01.078Z,100188.06
2018-12-20T02:45:42.227Z,100189.22
2018-12-20T02:48:23.518Z,100191.09
2018-12-20T02:51:05.260Z,100188.06
2018-12-20T02:53:46.635Z,100187.99
2018-12-20T02:56:28.406Z,100177.02
2018-12-20T02:59:10.299Z,100180.84
2018-12-20T03:01:52.010Z,100169.30
2018-12-20T03:04:33.795Z,100176.28
2018-12-20T03:07:16.071Z,100172.54
2018-12-20T03:09:57.547Z,100173.19
2018-12-20T03:12:39.638Z,100173.85
2018-12-20T03:15:21.950Z,100164.41
2018-12-20T03:18:04.078Z,100166.09
2018-12-20T03:20:45.895Z,100171.46
2018-12-20T03:23:28.429Z,100160.94
2018-12-20T03:26:10.777Z,100163.81
2018-12-20T03:28:52.260Z,100167.27
2018-12-20T03:31:33.959Z,100163.86
2018-12-20T03:34:15.368Z,100166.16
2018-12-20T03:36:56.562Z,100160.59
2018-12-20T03:39:38.116Z,100162.02
2018-12-20T03:42:20.160Z,100163.23
2018-12-20T03:45:02.651Z,100162.05
2018-12-20T03:47:44.919Z,100156.75
2018-12-20T03:50:26.498Z,100160.34
2018-12-20T03:53:09.538Z,100153.34
2018-12-20T03:55:51.977Z,100163.41
2018-12-20T03:58:34.696Z,100158.33
2018-12-20T04:01:16.704Z,100154.30
2018-12-20T04:03:59.307Z,100154.24
2018-12-20T04:06:41.235Z,100154.17
2018-12-20T04:09:23.192Z,100155.33
2018-12-20T04:12:05.971Z,100143.36
2018-12-20T04:14:50.803Z,100146.72
2018-12-20T04:17:33.075Z,100139.13
2018-12-20T04:20:15.449Z,100134.81
2018-12-20T04:22:57.216Z,100131.33
2018-12-20T04:25:38.630Z,100135.33
2018-12-20T04:28:20.606Z,100138.92
2018-12-20T04:31:02.396Z,100143.63
2018-12-20T04:36:29.153Z,100134.46
2018-12-20T04:39:11.881Z,100140.75
2018-12-20T04:41:54.485Z,100138.52
2018-12-20T04:44:36.174Z,100131.67
2018-12-20T04:47:18.278Z,100131.30
2018-12-20T04:50:00.027Z,100137.92
2018-12-20T04:52:42.614Z,100133.71
2018-12-20T04:55:24.369Z,100131.37
2018-12-20T04:58:05.929Z,100125.50
2018-12-20T05:00:47.303Z,100126.14
2018-12-20T05:03:29.071Z,100125.92
2018-12-20T05:06:10.962Z,100131.77
2018-12-20T05:08:53.523Z,100122.94
2018-12-20T05:11:35.373Z,100131.53
2018-12-20T05:14:16.694Z,100128.20
2018-12-20T05:16:58.713Z,100132.55
2018-12-20T05:19:40.556Z,100130.80
2018-12-20T05:22:22.114Z,100127.45
2018-12-20T05:25:04.378Z,100126.83
2018-12-20T05:27:46.267Z,100126.61
2018-12-20T05:30:28.393Z,100140.53
2018-12-20T05:33:10.332Z,100139.84
2018-12-20T05:35:51.536Z,100143.44
2018-12-20T05:38:33.883Z,100145.59
2018-12-20T05:41:15.827Z,100149.53
2018-12-20T05:43:58.189Z,100155.25
2018-12-20T05:46:40.888Z,100164.31
2018-12-20T05:49:23.202Z,100164.61
2018-12-20T05:52:04.762Z,100172.95
2018-12-20T05:54:47.803Z,100162.66
2018-12-20T05:57:30.396Z,100160.20
2018-12-20T06:00:12.744Z,100158.41
2018-12-20T06:02:54.638Z,100152.34
2018-12-20T06:05:37.060Z,100154.47
2018-12-20T06:08:18.968Z,100153.14
2018-12-20T06:11:01.535Z,100147.67
2018-12-20T06:13:43.854Z,100149.41
2018-12-20T06:16:26.090Z,100144.91
2018-12-20T06:19:07.481Z,100144.45
2018-12-20T06:21:49.512Z,100146.89
2018-12-20T06:24:31.301Z,100150.38
2018-12-20T06:27:13.182Z,100154.39
2018-12-20T06:29:54.435Z,100154.42
2018-12-20T06:32:35.757Z,100151.32
2018-12-20T06:35:17.432Z,100148.68
2018-12-20T06:37:59.535Z,100153.45
2018-12-20T06:40:41.551Z,100151.05
2018-12-20T06:43:23.067Z,100152.98
2018-12-20T06:46:05.431Z,100154.10
2018-12-20T06:48:47.435Z,100148.14
2018-12-20T06:51:29.327Z,100141.91
2018-12-20T06:54:11.407Z,100142.73
2018-12-20T06:56:53.636Z,100149.81
2018-12-20T06:59:35.235Z,100151.25
2018-12-20T07:02:16.903Z,100154.17
2018-12-20T07:04:58.176Z,100148.70
2018-12-20T07:07:40.102Z,100145.37
2018-12-20T07:10:21.323Z,100154.21
2018-12-20T07:13:03.207Z,100158.48
2018-12-20T07:15:44.588Z,100161.91
2018-12-20T07:18:26.662Z,100163.20
2018-12-20T07:21:07.963Z,100160.35
2018-12-20T07:23:50.624Z,100162.98
2018-12-20T07:26:32.314Z,100164.05
2018-12-20T07:29:14.732Z,100160.84
2018-12-20T07:31:56.244Z,100164.38
2018-12-20T07:34:37.507Z,100163.38
2018-12-20T07:37:19.222Z,100167.88
2018-12-20T07:40:01.748Z,100163.04
2018-12-20T07:42:44.210Z,100162.97
2018-12-20T07:45:25.626Z,100163.59
2018-12-20T07:48:07.439Z,100170.08
2018-12-20T07:50:49.698Z,100166.19
2018-12-20T07:53:31.469Z,100168.06
2018-12-20T07:56:13.999Z,100166.09
2018-12-20T07:58:55.487Z,100164.38
2018-12-20T08:01:36.849Z,100163.72
2018-12-20T08:04:18.979Z,100167.07
2018-12-20T08:07:01.235Z,100169.31
2018-12-20T08:09:43.140Z,100174.23
2018-12-20T08:12:24.735Z,100178.08
2018-12-20T08:15:06.962Z,100177.98
2018-12-20T08:17:48.739Z,100177.52
2018-12-20T08:20:30.979Z,100170.74
2018-12-20T08:23:12.720Z,100175.11
2018-12-20T08:25:54.006Z,100173.13
2018-12-20T08:28:35.187Z,100179.03
2018-12-20T08:31:16.571Z,100183.72
2018-12-20T08:33:58.573Z,100178.52
2018-12-20T08:36:40.570Z,100175.77
2018-12-20T08:39:22.155Z,100181.94
2018-12-20T08:42:03.799Z,100182.09
2018-12-20T08:44:46.221Z,100186.83
2018-12-20T08:47:27.544Z,100179.85
2018-12-20T08:50:09.233Z,100182.27
2018-12-20T08:52:51.321Z,100180.75
2018-12-20T08:55:32.714Z,100187.33
2018-12-20T08:58:15.024Z,100187.21
2018-12-20T09:00:57.150Z,100187.53
2018-12-20T09:03:38.411Z,100190.05
2018-12-20T09:06:20.609Z,100187.70
2018-12-20T09:09:02.526Z,100188.33
2018-12-20T09:11:44.529Z,100192.52
2018-12-20T09:14:26.391Z,100180.94
2018-12-20T09:17:08.418Z,100186.27
2018-12-20T09:19:50.903Z,100186.79
2018-12-20T09:22:32.229Z,100190.59
2018-12-20T09:25:14.795Z,100194.40
2018-12-20T09:27:56.591Z,100191.55
2018-12-20T09:30:37.988Z,100194.92
2018-12-20T09:33:19.419Z,100194.98
2018-12-20T09:36:00.743Z,100193.39
2018-12-20T09:38:42.528Z,100193.34
2018-12-20T09:41:24.730Z,100189.09
2018-12-20T09:44:07.526Z,100186.84
2018-12-20T09:46:49.006Z,100182.56
2018-12-20T09:49:30.899Z,100177.36
2018-12-20T09:52:12.096Z,100170.72
2018-12-20T09:54:53.437Z,100165.43
2018-12-20T09:57:34.817Z,100167.95
2018-12-20T10:00:16.839Z,100171.16
2018-12-20T10:02:58.632Z,100168.06
2018-12-20T10:08:26.670Z,100166.47
2018-12-20T10:11:08.248Z,100171.84
2018-12-20T10:13:49.906Z,100160.39
2018-12-20T10:16:31.844Z,100160.09
2018-12-20T10:19:14.193Z,100156.52
2018-12-20T10:21:55.836Z,100153.41
2018-12-20T10:24:37.085Z,100148.63
2018-12-20T10:27:18.316Z,100146.75
2018-12-20T10:30:00.448Z,100146.98
2018-12-20T10:32:41.720Z,100139.92
2018-12-20T10:35:22.927Z,100131.56
2018-12-20T10:38:04.721Z,100136.41
2018-12-20T10:40:47.849Z,100128.57
2018-12-20T10:43:30.202Z,100125.07
2018-12-20T10:46:12.439Z,100128.20
2018-12-20T10:48:53.888Z,100127.05
2018-12-20T10:51:36.401Z,100114.78
2018-12-20T10:54:17.740Z,100116.09
2018-12-20T10:56:59.532Z,100109.34
2018-12-20T10:59:41.298Z,100109.73
2018-12-20T11:02:28.389Z,100105.52
2018-12-20T11:05:15.971Z,100098.42
2018-12-20T11:08:00.387Z,100099.26
2018-12-20T11:10:43.029Z,100101.28
2018-12-20T11:13:25.723Z,100100.63
2018-12-20T11:16:08.415Z,100093.29
2018-12-20T11:18:52.692Z,100088.27
2018-12-20T11:21:35.746Z,100087.63
2018-12-20T11:24:18.333Z,100087.80
2018-12-20T11:27:00.506Z,100089.11
2018-12-20T11:29:42.782Z,100082.86
2018-12-20T11:32:26.388Z,100085.75
2018-12-20T11:35:09.851Z,100084.75
2018-12-20T11:37:52.510Z,100081.68
2018-12-20T11:40:35.157Z,100072.97
2018-12-20T11:43:17.553Z,100073.23
2018-12-20T11:46:08.506Z,100078.41
2018-12-20T11:48:52.179Z,100073.88
2018-12-20T11:51:35.045Z,100073.81
2018-12-20T11:54:21.607Z,100075.37
2018-12-20T11:57:08.194Z,100075.38
2018-12-20T11:59:52.847Z,100067.03
2018-12-20T12:02:56.736Z,100069.59
2018-12-20T12:05:38.857Z,100069.12
2018-12-20T12:08:28.509Z,100067.41
2018-12-20T12:11:10.714Z,100059.96
2018-12-20T12:13:52.560Z,100060.23
2018-12-20T12:16:34.684Z,100063.61
2018-12-20T12:19:16.582Z,100060.87
2018-12-20T12:21:58.428Z,100065.56
2018-12-20T12:24:41.244Z,100057.52
2018-12-20T12:27:23.449Z,100057.97
2018-12-20T12:30:07.631Z,100055.77
2018-12-20T12:32:49.781Z,100057.89
2018-12-20T12:35:32.431Z,100053.91
2018-12-20T12:38:14.669Z,100058.97
2018-12-20T12:40:57.300Z,100060.17
2018-12-20T12:43:39.194Z,100069.14
2018-12-20T12:46:21.756Z,100066.54
2018-12-20T12:49:03.870Z,100062.88
2018-12-20T12:51:52.981Z,100063.33
2018-12-20T12:54:29.815Z,100059.58
2018-12-20T12:57:12.375Z,100066.89
2018-12-20T12:59:54.570Z,100062.01
2018-12-20T13:02:37.199Z,100071.77
2018-12-20T13:05:19.685Z,100077.46
2018-12-20T13:08:01.899Z,100072.16
2018-12-20T13:10:44.169Z,100072.44
2018-12-20T13:13:26.305Z,100075.55
2018-12-20T13:16:08.227Z,100073.50
2018-12-20T13:18:50.100Z,100070.97
2018-12-20T13:21:32.727Z,100072.70
2018-12-20T13:24:15.991Z,100073.00
2018-12-20T13:26:57.796Z,100075.76
2018-12-20T13:29:40.192Z,100071.00
2018-12-20T13:32:22.569Z,100071.92
2018-12-20T13:35:04.953Z,100068.93
2018-12-20T13:37:47.770Z,100067.36
2018-12-20T13:40:30.248Z,100071.66
2018-12-20T13:43:12.091Z,100072.62
2018-12-20T13:45:54.666Z,100067.39
2018-12-20T13:48:37.149Z,100069.33
2018-12-20T13:51:19.198Z,100075.78
2018-12-20T13:54:01.547Z,100070.20
2018-12-20T13:56:43.704Z,100074.12
2018-12-20T13:59:26.452Z,100076.86
2018-12-20T14:02:09.087Z,100068.62
2018-12-20T14:04:51.870Z,100072.81
2018-12-20T14:07:34.358Z,100072.51
2018-12-20T14:10:17.040Z,100070.96
2018-12-20T14:12:59.394Z,100079.44
2018-12-20T14:15:41.545Z,100078.95
2018-12-20T14:18:30.921Z,100081.02
2018-12-20T14:21:07.717Z,100077.52
2018-12-20T14:23:49.643Z,100075.42
2018-12-20T14:26:31.844Z,100080.74
2018-12-20T14:29:13.551Z,100077.66
2018-12-20T14:31:55.949Z,100086.28
2018-12-20T14:34:38.045Z,100083.08
2018-12-20T14:37:21.643Z,100075.28
2018-12-20T14:40:05.717Z,100084.59
2018-12-20T14:42:47.655Z,100081.38
2018-12-20T14:45:30.129Z,100086.40
2018-12-20T14:48:15.555Z,100083.80
2018-12-20T14:50:58.560Z,100092.63
2018-12-20T14:53:40.384Z,100089.59
2018-12-20T14:56:22.652Z,100090.20
2018-12-20T14:59:04.979Z,100090.91
2018-12-20T15:01:47.259Z,100089.43
2018-12-20T15:04:28.440Z,100084.50
2018-12-20T15:07:10.800Z,100084.56
2018-12-20T15:09:52.661Z,100084.12
2018-12-20T15:12:34.901Z,100096.84
2018-12-20T15:15:16.964Z,100089.52
2018-12-20T15:17:59.485Z,100086.59
2018-12-20T15:20:41.435Z,100095.58
2018-12-20T15:23:23.684Z,100097.33
2018-12-20T15:26:06.214Z,100100.90
2018-12-20T15:28:48.440Z,100095.59
2018-12-20T15:31:30.669Z,100101.58
2018-12-20T15:34:15.115Z,100099.34
2018-12-20T15:36:57.287Z,100097.88
2018-12-20T15:39:39.277Z,100104.41
2018-12-20T15:42:21.225Z,100100.98
2018-12-20T15:45:04.137Z,100102.62
2018-12-20T15:47:46.401Z,100106.03
2018-12-20T15:50:28.451Z,100104.90
2018-12-20T15:53:11.422Z,100104.35
2018-12-20T15:55:54.009Z,100103.31
2018-12-20T15:58:35.925Z,100106.79
2018-12-20T16:01:18.206Z,100106.91
2018-12-20T16:03:59.941Z,100102.55
2018-12-20T16:06:41.799Z,100103.73
2018-12-20T16:09:24.002Z,100109.20
2018-12-20T16:12:06.121Z,100107.59
2018-12-20T16:14:48.485Z,100114.41
2018-12-20T16:17:30.422Z,100111.93
2018-12-20T16:20:13.291Z,100118.99
2018-12-20T16:22:55.796Z,100113.98
2018-12-20T16:25:39.020Z,100122.91
2018-12-20T16:28:21.010Z,100120.70
2018-12-20T16:31:03.555Z,100122.75
2018-12-20T16:33:46.406Z,100123.48
2018-12-20T16:36:28.679Z,100123.11
2018-12-20T16:39:10.944Z,100121.11
2018-12-20T16:41:53.076Z,100121.47
2018-12-20T16:44:36.089Z,100123.83
2018-12-20T16:50:08.601Z,100128.77
2018-12-20T16:52:50.596Z,100134.02
2018-12-20T16:55:33.415Z,100126.62
2018-12-20T16:58:15.813Z,100134.44
2018-12-20T17:00:58.246Z,100132.65
2018-12-20T17:03:41.577Z,100131.07
2018-12-20T17:06:25.792Z,100128.09
2018-12-20T17:09:10.547Z,100134.35
2018-12-20T17:11:52.821Z,100130.67
2018-12-20T17:14:35.176Z,100131.57
2018-12-20T17:17:17.836Z,100128.26
2018-12-20T17:20:00.399Z,100122.84
2018-12-20T17:22:45.783Z,100128.43
2018-12-20T17:25:28.667Z,100122.95
2018-12-20T17:28:11.096Z,100122.99
2018-12-20T17:30:54.003Z,100129.00
2018-12-20T17:33:36.767Z,100122.33
2018-12-20T17:36:21.761Z,100126.36
2018-12-20T17:39:06.314Z,100128.86
2018-12-20T17:41:48.677Z,100129.58
2018-12-20T17:44:30.736Z,100129.97
2018-12-20T17:47:13.666Z,100137.87
2018-12-20T17:49:55.932Z,100135.17
2018-12-20T17:52:39.885Z,100134.05
2018-12-20T17:55:22.324Z,100131.58
2018-12-20T17:58:05.276Z,100134.99
2018-12-20T18:00:47.891Z,100132.00
2018-12-20T18:03:30.573Z,100128.20
2018-12-20T18:06:16.135Z,100131.78
2018-12-20T18:08:59.214Z,100129.00
2018-12-20T18:11:42.179Z,100136.90
2018-12-20T18:14:24.580Z,100136.77
2018-12-20T18:17:06.821Z,100136.45
2018-12-20T18:19:49.105Z,100136.47
2018-12-20T18:22:33.169Z,100143.78
2018-12-20T18:25:16.983Z,100145.62
2018-12-20T18:28:00.943Z,100149.92
2018-12-20T18:30:45.029Z,100145.61
2018-12-20T18:33:29.172Z,100145.07
2018-12-20T18:36:13.443Z,100139.69
2018-12-20T18:38:57.517Z,100143.41
2018-12-20T18:41:45.783Z,100144.33
2018-12-20T18:44:31.364Z,100145.09
2018-12-20T18:47:13.855Z,100145.64
2018-12-20T18:49:56.525Z,100143.95
2018-12-20T18:52:38.489Z,100146.72
2018-12-20T18:55:21.146Z,100147.19
2018-12-20T18:58:06.044Z,100140.23
2018-12-20T19:00:48.452Z,100140.45
2018-12-20T19:03:30.716Z,100149.09
2018-12-20T19:06:13.507Z,100149.98
2018-12-20T19:08:55.807Z,100148.31
2018-12-20T19:11:38.410Z,100145.88
2018-12-20T19:14:23.619Z,100142.53
2018-12-20T19:17:06.301Z,100146.46
2018-12-20T19:19:56.147Z,100144.59
2018-12-20T19:22:33.863Z,100153.20
2018-12-20T19:25:16.119Z,100154.72
2018-12-20T19:27:58.165Z,100152.67
2018-12-20T19:30:40.645Z,100154.75
2018-12-20T19:33:22.892Z,100156.26
2018-12-20T19:36:05.903Z,100159.35
2018-12-20T19:38:48.151Z,100151.50
2018-12-20T19:41:30.572Z,100152.27
2018-12-20T19:44:15.207Z,100146.33
2018-12-20T19:46:59.593Z,100144.44
2018-12-20T19:49:44.285Z,100138.39
2018-12-20T19:52:28.856Z,100146.10
2018-12-20T19:55:13.648Z,100146.71
2018-12-20T19:57:58.600Z,100148.72
2018-12-20T20:00:45.912Z,100147.16
2018-12-20T20:03:30.050Z,100150.88
2018-12-20T20:06:14.305Z,100144.52
2018-12-20T20:08:58.495Z,100148.44
2018-12-20T20:11:43.642Z,100144.19
2018-12-20T20:14:27.255Z,100149.37
2018-12-20T20:17:16.007Z,100149.09
2018-12-20T20:20:00.143Z,100152.32
2018-12-20T20:22:47.560Z,100152.84
2018-12-20T20:25:33.020Z,100151.43
2018-12-20T20:28:18.705Z,100149.20
2018-12-20T20:31:01.900Z,100156.09
2018-12-20T20:33:44.792Z,100151.12
2018-12-20T20:36:26.688Z,100150.62
2018-12-20T20:39:09.436Z,100151.28
2018-12-20T20:41:51.924Z,100142.97
2018-12-20T20:44:33.986Z,100143.45
2018-12-20T20:47:16.486Z,100145.02
2018-12-20T20:49:58.494Z,100145.13
2018-12-20T20:52:41.555Z,100141.98
2018-12-20T20:55:23.781Z,100135.84
2018-12-20T20:58:05.956Z,100131.20
2018-12-20T21:00:48.032Z,100126.98
2018-12-20T21:03:30.215Z,100136.00
2018-12-20T21:06:12.581Z,100141.27
2018-12-20T21:08:55.027Z,100132.68
2018-12-20T21:11:37.144Z,100135.94
2018-12-20T21:14:19.739Z,100131.73
2018-12-20T21:17:01.522Z,100131.78
2018-12-20T21:19:44.230Z,100133.89
2018-12-20T21:22:26.515Z,100135.97
2018-12-20T21:25:09.255Z,100137.70
2018-12-20T21:27:51.616Z,100141.12
2018-12-20T21:30:33.847Z,100142.63
2018-12-20T21:33:15.994Z,100143.37
2018-12-20T21:35:59.971Z,100150.44
2018-12-20T21:38:42.140Z,100151.20
2018-12-20T21:41:25.299Z,100147.86
2018-12-20T21:44:08.023Z,100150.58
2018-12-20T21:46:50.261Z,100146.35
2018-12-20T21:49:32.539Z,100151.30
2018-12-20T21:52:14.670Z,100152.78
2018-12-20T21:54:56.583Z,100156.54
2018-12-20T21:57:38.848Z,100163.94
2018-12-20T22:00:20.646Z,100156.01
2018-12-20T22:03:02.431Z,100153.54
2018-12-20T22:05:44.845Z,100158.55
2018-12-20T22:08:26.742Z,100154.22
2018-12-20T22:11:09.096Z,100155.39
2018-12-20T22:13:50.872Z,100161.31
2018-12-20T22:16:32.885Z,100158.16
2018-12-20T22:19:15.589Z,100152.34
2018-12-20T22:21:58.683Z,100149.17
2018-12-20T22:24:41.047Z,100152.67
2018-12-20T22:27:22.909Z,100156.88
2018-12-20T22:30:07.945Z,100156.16
2018-12-20T22:32:49.987Z,100158.73
2018-12-20T22:35:32.398Z,100156.88
2018-12-20T22:38:14.285Z,100157.72
2018-12-20T22:40:56.105Z,100157.58
2018-12-20T22:43:38.599Z,100155.83
2018-12-20T22:46:20.448Z,100151.70
2018-12-20T22:49:02.236Z,100152.25
2018-12-20T22:51:44.403Z,100151.30
2018-12-20T22:54:26.614Z,100151.45
2018-12-20T22:57:08.573Z,100150.84
2018-12-20T22:59:50.931Z,100147.58
2018-12-20T23:02:33.762Z,100150.06
2018-12-20T23:05:15.985Z,100150.20
2018-12-20T23:07:58.207Z,100144.59
2018-12-20T23:10:39.979Z,100143.19
2018-12-20T23:13:22.237Z,100137.30
2018-12-20T23:16:04.472Z,100138.13
2018-12-20T23:18:47.052Z,100135.37
2018-12-20T23:21:29.723Z,100130.64
2018-12-20T23:24:12.143Z,100127.92
2018-12-20T23:26:54.137Z,100128.08
2018-12-20T23:29:36.316Z,100122.39
2018-12-20T23:32:18.130Z,100117.83
2018-12-20T23:35:00.108Z,100116.98
2018-12-20T23:37:41.815Z,100118.59
2018-12-20T23:40:23.623Z,100112.30
2018-12-20T23:43:06.163Z,100113.28
2018-12-20T23:45:48.296Z,100116.14
2018-12-20T23:48:30.435Z,100110.72
2018-12-20T23:51:13.903Z,100113.89
2018-12-20T23:53:56.902Z,100120.28
2018-12-20T23:56:38.985Z,100113.12
2018-12-20T23:59:20.921Z,100110.86
